sensor_id;sensor_type;location;lat;lon;timestamp;temperature;humidity
4727;DHT22;2377;51.734;8.950;2022-07-24T00:01:16;15.50;99.90
4727;DHT22;2377;51.734;8.950;2022-07-24T00:03:43;15.50;99.90
4727;DHT22;2377;51.734;8.950;2022-07-24T00:06:10;15.50;99.90
4727;DHT22;2377;51.734;8.950;2022-07-24T00:08:37;15.50;99.90
4727;DHT22;2377;51.734;8.950;2022-07-24T00:11:06;15.40;99.90
4727;DHT22;2377;51.734;8.950;2022-07-24T00:13:34;15.30;99.90
4727;DHT22;2377;51.734;8.950;2022-07-24T00:16:01;15.30;99.90
4727;DHT22;2377;51.734;8.950;2022-07-24T00:18:29;15.30;99.90
4727;DHT22;2377;51.734;8.950;2022-07-24T00:20:56;15.30;99.90
4727;DHT22;2377;51.734;8.950;2022-07-24T00:23:24;15.30;99.90
4727;DHT22;2377;51.734;8.950;2022-07-24T00:25:54;15.30;99.90
4727;DHT22;2377;51.734;8.950;2022-07-24T00:28:22;15.30;99.90
4727;DHT22;2377;51.734;8.950;2022-07-24T00:30:50;15.30;99.90
4727;DHT22;2377;51.734;8.950;2022-07-24T00:33:17;15.20;99.90
4727;DHT22;2377;51.734;8.950;2022-07-24T00:35:45;15.10;99.90
4727;DHT22;2377;51.734;8.950;2022-07-24T00:38:12;15.10;99.90
4727;DHT22;2377;51.734;8.950;2022-07-24T00:40:39;15.00;99.90
4727;DHT22;2377;51.734;8.950;2022-07-24T00:43:06;15.00;99.90
4727;DHT22;2377;51.734;8.950;2022-07-24T00:45:33;15.00;99.90
4727;DHT22;2377;51.734;8.950;2022-07-24T00:48:03;15.00;99.90
4727;DHT22;2377;51.734;8.950;2022-07-24T00:50:31;15.00;99.90
4727;DHT22;2377;51.734;8.950;2022-07-24T00:52:58;15.00;99.90
4727;DHT22;2377;51.734;8.950;2022-07-24T00:55:25;15.00;99.90
4727;DHT22;2377;51.734;8.950;2022-07-24T00:57:54;15.00;99.90
4727;DHT22;2377;51.734;8.950;2022-07-24T01:00:22;14.90;99.90
4727;DHT22;2377;51.734;8.950;2022-07-24T01:02:50;14.90;99.90
4727;DHT22;2377;51.734;8.950;2022-07-24T01:05:19;14.90;99.90
4727;DHT22;2377;51.734;8.950;2022-07-24T01:07:46;14.90;99.90
4727;DHT22;2377;51.734;8.950;2022-07-24T01:10:14;14.80;99.90
4727;DHT22;2377;51.734;8.950;2022-07-24T01:12:41;14.80;99.90
4727;DHT22;2377;51.734;8.950;2022-07-24T01:15:10;14.80;99.90
4727;DHT22;2377;51.734;8.950;2022-07-24T01:17:40;14.80;99.90
4727;DHT22;2377;51.734;8.950;2022-07-24T01:20:09;14.80;99.90
4727;DHT22;2377;51.734;8.950;2022-07-24T01:22:39;14.80;99.90
4727;DHT22;2377;51.734;8.950;2022-07-24T01:25:07;14.70;99.90
4727;DHT22;2377;51.734;8.950;2022-07-24T01:27:36;14.60;99.90
4727;DHT22;2377;51.734;8.950;2022-07-24T01:30:04;14.60;99.90
4727;DHT22;2377;51.734;8.950;2022-07-24T01:32:32;14.60;99.90
4727;DHT22;2377;51.734;8.950;2022-07-24T01:34:59;14.60;99.90
4727;DHT22;2377;51.734;8.950;2022-07-24T01:37:26;14.50;99.90
4727;DHT22;2377;51.734;8.950;2022-07-24T01:39:55;14.60;99.90
4727;DHT22;2377;51.734;8.950;2022-07-24T01:42:22;14.50;99.90
4727;DHT22;2377;51.734;8.950;2022-07-24T01:44:51;14.50;99.90
4727;DHT22;2377;51.734;8.950;2022-07-24T01:47:18;14.60;99.90
4727;DHT22;2377;51.734;8.950;2022-07-24T01:49:45;14.50;99.90
4727;DHT22;2377;51.734;8.950;2022-07-24T01:52:12;14.50;99.90
4727;DHT22;2377;51.734;8.950;2022-07-24T01:54:39;14.50;99.90
4727;DHT22;2377;51.734;8.950;2022-07-24T01:57:08;14.50;99.90
4727;DHT22;2377;51.734;8.950;2022-07-24T01:59:35;14.50;99.90
4727;DHT22;2377;51.734;8.950;2022-07-24T02:02:02;14.50;99.90
4727;DHT22;2377;51.734;8.950;2022-07-24T02:04:29;14.40;99.90
4727;DHT22;2377;51.734;8.950;2022-07-24T02:06:56;14.40;99.90
4727;DHT22;2377;51.734;8.950;2022-07-24T02:09:23;14.40;99.90
4727;DHT22;2377;51.734;8.950;2022-07-24T02:11:51;14.40;99.90
4727;DHT22;2377;51.734;8.950;2022-07-24T02:14:19;14.40;99.90
4727;DHT22;2377;51.734;8.950;2022-07-24T02:16:47;14.50;99.90
4727;DHT22;2377;51.734;8.950;2022-07-24T02:19:14;14.40;99.90
4727;DHT22;2377;51.734;8.950;2022-07-24T02:21:41;14.40;99.90
4727;DHT22;2377;51.734;8.950;2022-07-24T02:24:08;14.40;99.90
4727;DHT22;2377;51.734;8.950;2022-07-24T02:26:35;14.40;99.90
4727;DHT22;2377;51.734;8.950;2022-07-24T02:29:02;14.40;99.90
4727;DHT22;2377;51.734;8.950;2022-07-24T02:31:31;14.30;99.90
4727;DHT22;2377;51.734;8.950;2022-07-24T02:33:58;14.30;99.90
4727;DHT22;2377;51.734;8.950;2022-07-24T02:36:25;14.30;99.90
4727;DHT22;2377;51.734;8.950;2022-07-24T02:38:52;14.30;99.90
4727;DHT22;2377;51.734;8.950;2022-07-24T02:41:20;14.30;99.90
4727;DHT22;2377;51.734;8.950;2022-07-24T02:43:47;14.30;99.90
4727;DHT22;2377;51.734;8.950;2022-07-24T02:46:14;14.30;99.90
4727;DHT22;2377;51.734;8.950;2022-07-24T02:48:42;14.30;1.00
4727;DHT22;2377;51.734;8.950;2022-07-24T02:51:09;14.30;1.00
4727;DHT22;2377;51.734;8.950;2022-07-24T02:53:37;14.20;1.00
4727;DHT22;2377;51.734;8.950;2022-07-24T02:56:05;14.20;1.00
4727;DHT22;2377;51.734;8.950;2022-07-24T02:58:32;14.30;1.00
4727;DHT22;2377;51.734;8.950;2022-07-24T03:00:59;14.20;1.00
4727;DHT22;2377;51.734;8.950;2022-07-24T03:03:27;14.30;1.00
4727;DHT22;2377;51.734;8.950;2022-07-24T03:05:55;14.30;1.00
4727;DHT22;2377;51.734;8.950;2022-07-24T03:08:22;14.20;1.00
4727;DHT22;2377;51.734;8.950;2022-07-24T03:10:50;14.20;1.00
4727;DHT22;2377;51.734;8.950;2022-07-24T03:13:17;14.10;1.00
4727;DHT22;2377;51.734;8.950;2022-07-24T03:15:44;14.10;1.00
4727;DHT22;2377;51.734;8.950;2022-07-24T03:18:11;14.10;1.00
4727;DHT22;2377;51.734;8.950;2022-07-24T03:20:38;14.10;1.00
4727;DHT22;2377;51.734;8.950;2022-07-24T03:23:07;14.10;1.00
4727;DHT22;2377;51.734;8.950;2022-07-24T03:25:34;14.10;1.00
4727;DHT22;2377;51.734;8.950;2022-07-24T03:28:01;14.10;1.00
4727;DHT22;2377;51.734;8.950;2022-07-24T03:30:28;14.10;1.00
4727;DHT22;2377;51.734;8.950;2022-07-24T03:32:55;14.10;1.00
4727;DHT22;2377;51.734;8.950;2022-07-24T03:35:22;14.10;1.00
4727;DHT22;2377;51.734;8.950;2022-07-24T03:37:49;14.10;1.00
4727;DHT22;2377;51.734;8.950;2022-07-24T03:40:17;14.10;1.00
4727;DHT22;2377;51.734;8.950;2022-07-24T03:42:45;14.10;1.00
4727;DHT22;2377;51.734;8.950;2022-07-24T03:45:12;14.10;1.00
4727;DHT22;2377;51.734;8.950;2022-07-24T03:47:39;14.10;1.00
4727;DHT22;2377;51.734;8.950;2022-07-24T03:50:06;14.10;1.00
4727;DHT22;2377;51.734;8.950;2022-07-24T03:52:34;14.10;1.00
4727;DHT22;2377;51.734;8.950;2022-07-24T03:55:01;14.20;1.00
4727;DHT22;2377;51.734;8.950;2022-07-24T03:57:30;14.10;1.00
4727;DHT22;2377;51.734;8.950;2022-07-24T03:59:57;14.20;1.00
4727;DHT22;2377;51.734;8.950;2022-07-24T04:02:24;14.20;1.00
4727;DHT22;2377;51.734;8.950;2022-07-24T04:04:51;14.20;1.00
4727;DHT22;2377;51.734;8.950;2022-07-24T04:07:18;14.20;1.00
4727;DHT22;2377;51.734;8.950;2022-07-24T04:09:45;14.30;1.00
4727;DHT22;2377;51.734;8.950;2022-07-24T04:12:12;14.30;1.00
4727;DHT22;2377;51.734;8.950;2022-07-24T04:14:41;14.30;1.00
4727;DHT22;2377;51.734;8.950;2022-07-24T04:17:08;14.30;1.00
4727;DHT22;2377;51.734;8.950;2022-07-24T04:19:35;14.40;1.00
4727;DHT22;2377;51.734;8.950;2022-07-24T04:22:02;14.50;1.00
4727;DHT22;2377;51.734;8.950;2022-07-24T04:24:30;14.50;1.00
4727;DHT22;2377;51.734;8.950;2022-07-24T04:26:57;14.50;1.00
4727;DHT22;2377;51.734;8.950;2022-07-24T04:29:24;14.50;1.00
4727;DHT22;2377;51.734;8.950;2022-07-24T04:31:52;14.50;1.00
4727;DHT22;2377;51.734;8.950;2022-07-24T04:34:19;14.50;1.00
4727;DHT22;2377;51.734;8.950;2022-07-24T04:36:46;14.50;1.00
4727;DHT22;2377;51.734;8.950;2022-07-24T04:39:13;14.60;1.00
4727;DHT22;2377;51.734;8.950;2022-07-24T04:41:41;14.60;1.00
4727;DHT22;2377;51.734;8.950;2022-07-24T04:44:08;14.70;1.00
4727;DHT22;2377;51.734;8.950;2022-07-24T04:46:35;14.80;1.00
4727;DHT22;2377;51.734;8.950;2022-07-24T04:49:03;14.80;1.00
4727;DHT22;2377;51.734;8.950;2022-07-24T04:51:30;14.90;1.00
4727;DHT22;2377;51.734;8.950;2022-07-24T04:53:58;15.00;1.00
4727;DHT22;2377;51.734;8.950;2022-07-24T04:56:25;15.00;1.00
4727;DHT22;2377;51.734;8.950;2022-07-24T04:58:55;15.00;1.00
4727;DHT22;2377;51.734;8.950;2022-07-24T05:01:22;15.10;1.00
4727;DHT22;2377;51.734;8.950;2022-07-24T05:03:50;15.10;1.00
4727;DHT22;2377;51.734;8.950;2022-07-24T05:06:18;15.20;1.00
4727;DHT22;2377;51.734;8.950;2022-07-24T05:08:45;15.30;1.00
4727;DHT22;2377;51.734;8.950;2022-07-24T05:11:12;15.30;1.00
4727;DHT22;2377;51.734;8.950;2022-07-24T05:13:39;15.40;1.00
4727;DHT22;2377;51.734;8.950;2022-07-24T05:16:07;15.40;1.00
4727;DHT22;2377;51.734;8.950;2022-07-24T05:18:35;15.50;1.00
4727;DHT22;2377;51.734;8.950;2022-07-24T05:21:02;15.50;1.00
4727;DHT22;2377;51.734;8.950;2022-07-24T05:23:31;15.60;1.00
4727;DHT22;2377;51.734;8.950;2022-07-24T05:25:58;15.60;1.00
4727;DHT22;2377;51.734;8.950;2022-07-24T05:28:26;15.70;1.00
4727;DHT22;2377;51.734;8.950;2022-07-24T05:30:53;15.80;1.00
4727;DHT22;2377;51.734;8.950;2022-07-24T05:33:20;15.80;1.00
4727;DHT22;2377;51.734;8.950;2022-07-24T05:35:47;15.90;1.00
4727;DHT22;2377;51.734;8.950;2022-07-24T05:38:14;16.00;1.00
4727;DHT22;2377;51.734;8.950;2022-07-24T05:40:43;16.00;1.00
4727;DHT22;2377;51.734;8.950;2022-07-24T05:43:10;16.10;1.00
4727;DHT22;2377;51.734;8.950;2022-07-24T05:45:37;16.10;1.00
4727;DHT22;2377;51.734;8.950;2022-07-24T05:48:05;16.30;1.00
4727;DHT22;2377;51.734;8.950;2022-07-24T05:50:32;16.30;99.90
4727;DHT22;2377;51.734;8.950;2022-07-24T05:52:59;16.50;99.90
4727;DHT22;2377;51.734;8.950;2022-07-24T05:55:26;16.60;99.90
4727;DHT22;2377;51.734;8.950;2022-07-24T05:57:56;16.60;99.90
4727;DHT22;2377;51.734;8.950;2022-07-24T06:00:23;16.80;99.90
4727;DHT22;2377;51.734;8.950;2022-07-24T06:02:50;16.80;99.90
4727;DHT22;2377;51.734;8.950;2022-07-24T06:05:17;16.90;99.90
4727;DHT22;2377;51.734;8.950;2022-07-24T06:07:44;17.00;57.80
4727;DHT22;2377;51.734;8.950;2022-07-24T06:10:12;17.10;1.00
4727;DHT22;2377;51.734;8.950;2022-07-24T06:12:39;17.10;1.00
4727;DHT22;2377;51.734;8.950;2022-07-24T06:15:08;17.30;1.00
4727;DHT22;2377;51.734;8.950;2022-07-24T06:17:36;17.30;1.00
4727;DHT22;2377;51.734;8.950;2022-07-24T06:20:04;17.40;1.00
4727;DHT22;2377;51.734;8.950;2022-07-24T06:22:32;17.50;1.00
4727;DHT22;2377;51.734;8.950;2022-07-24T06:24:59;17.60;1.00
4727;DHT22;2377;51.734;8.950;2022-07-24T06:27:26;17.70;1.00
4727;DHT22;2377;51.734;8.950;2022-07-24T06:29:53;17.80;99.90
4727;DHT22;2377;51.734;8.950;2022-07-24T06:32:22;17.80;99.90
4727;DHT22;2377;51.734;8.950;2022-07-24T06:34:49;17.90;99.90
4727;DHT22;2377;51.734;8.950;2022-07-24T06:37:16;18.00;99.90
4727;DHT22;2377;51.734;8.950;2022-07-24T06:39:43;18.10;99.90
4727;DHT22;2377;51.734;8.950;2022-07-24T06:42:10;18.20;99.90
4727;DHT22;2377;51.734;8.950;2022-07-24T06:44:37;18.30;99.90
4727;DHT22;2377;51.734;8.950;2022-07-24T06:47:05;18.40;99.90
4727;DHT22;2377;51.734;8.950;2022-07-24T06:49:33;18.50;99.90
4727;DHT22;2377;51.734;8.950;2022-07-24T06:52:00;18.60;99.90
4727;DHT22;2377;51.734;8.950;2022-07-24T06:54:27;18.70;99.90
4727;DHT22;2377;51.734;8.950;2022-07-24T06:56:54;18.80;99.90
4727;DHT22;2377;51.734;8.950;2022-07-24T06:59:22;19.00;99.90
4727;DHT22;2377;51.734;8.950;2022-07-24T07:01:49;19.10;99.90
4727;DHT22;2377;51.734;8.950;2022-07-24T07:04:16;19.30;99.90
4727;DHT22;2377;51.734;8.950;2022-07-24T07:06:48;19.60;99.90
4727;DHT22;2377;51.734;8.950;2022-07-24T07:09:15;19.80;99.90
4727;DHT22;2377;51.734;8.950;2022-07-24T07:11:42;20.00;99.90
4727;DHT22;2377;51.734;8.950;2022-07-24T07:14:09;20.20;99.90
4727;DHT22;2377;51.734;8.950;2022-07-24T07:16:36;20.50;99.90
4727;DHT22;2377;51.734;8.950;2022-07-24T07:19:03;20.70;99.90
4727;DHT22;2377;51.734;8.950;2022-07-24T07:21:30;21.00;99.90
4727;DHT22;2377;51.734;8.950;2022-07-24T07:23:59;21.30;99.90
4727;DHT22;2377;51.734;8.950;2022-07-24T07:26:26;21.50;99.90
4727;DHT22;2377;51.734;8.950;2022-07-24T07:28:53;21.60;99.90
4727;DHT22;2377;51.734;8.950;2022-07-24T07:31:20;21.90;99.90
4727;DHT22;2377;51.734;8.950;2022-07-24T07:33:49;22.10;99.90
4727;DHT22;2377;51.734;8.950;2022-07-24T07:36:16;22.30;1.00
4727;DHT22;2377;51.734;8.950;2022-07-24T07:38:44;22.60;99.90
4727;DHT22;2377;51.734;8.950;2022-07-24T07:41:12;22.80;1.00
4727;DHT22;2377;51.734;8.950;2022-07-24T07:43:39;23.00;1.00
4727;DHT22;2377;51.734;8.950;2022-07-24T07:46:07;23.10;1.00
4727;DHT22;2377;51.734;8.950;2022-07-24T07:48:34;23.30;1.00
4727;DHT22;2377;51.734;8.950;2022-07-24T07:51:01;23.40;99.90
4727;DHT22;2377;51.734;8.950;2022-07-24T07:53:28;23.50;1.00
4727;DHT22;2377;51.734;8.950;2022-07-24T07:55:55;23.70;1.00
4727;DHT22;2377;51.734;8.950;2022-07-24T07:58:24;23.80;1.00
4727;DHT22;2377;51.734;8.950;2022-07-24T08:00:52;24.00;1.00
4727;DHT22;2377;51.734;8.950;2022-07-24T08:03:19;24.10;1.00
4727;DHT22;2377;51.734;8.950;2022-07-24T08:05:46;24.40;99.90
4727;DHT22;2377;51.734;8.950;2022-07-24T08:08:13;24.50;99.90
4727;DHT22;2377;51.734;8.950;2022-07-24T08:10:40;24.80;1.00
4727;DHT22;2377;51.734;8.950;2022-07-24T08:13:08;24.80;1.00
4727;DHT22;2377;51.734;8.950;2022-07-24T08:15:36;24.90;1.00
4727;DHT22;2377;51.734;8.950;2022-07-24T08:18:04;25.00;99.90
4727;DHT22;2377;51.734;8.950;2022-07-24T08:20:31;25.20;99.90
4727;DHT22;2377;51.734;8.950;2022-07-24T08:22:58;25.40;99.90
4727;DHT22;2377;51.734;8.950;2022-07-24T08:25:26;25.60;99.90
4727;DHT22;2377;51.734;8.950;2022-07-24T08:27:54;25.80;99.90
4727;DHT22;2377;51.734;8.950;2022-07-24T08:30:21;26.00;99.90
4727;DHT22;2377;51.734;8.950;2022-07-24T08:32:50;26.10;99.90
4727;DHT22;2377;51.734;8.950;2022-07-24T08:35:17;26.20;99.90
4727;DHT22;2377;51.734;8.950;2022-07-24T08:37:46;26.30;99.90
4727;DHT22;2377;51.734;8.950;2022-07-24T08:40:13;26.30;99.90
4727;DHT22;2377;51.734;8.950;2022-07-24T08:42:41;26.50;99.90
4727;DHT22;2377;51.734;8.950;2022-07-24T08:45:09;26.50;99.90
4727;DHT22;2377;51.734;8.950;2022-07-24T08:47:38;26.50;99.90
4727;DHT22;2377;51.734;8.950;2022-07-24T08:50:09;26.60;99.90
4727;DHT22;2377;51.734;8.950;2022-07-24T08:52:37;26.80;99.90
4727;DHT22;2377;51.734;8.950;2022-07-24T08:55:06;26.90;99.90
4727;DHT22;2377;51.734;8.950;2022-07-24T08:57:33;27.10;99.90
4727;DHT22;2377;51.734;8.950;2022-07-24T09:00:01;27.10;99.90
4727;DHT22;2377;51.734;8.950;2022-07-24T09:02:29;27.30;99.90
4727;DHT22;2377;51.734;8.950;2022-07-24T09:05:00;27.30;99.90
4727;DHT22;2377;51.734;8.950;2022-07-24T09:07:30;27.50;99.90
4727;DHT22;2377;51.734;8.950;2022-07-24T09:09:59;27.60;99.90
4727;DHT22;2377;51.734;8.950;2022-07-24T09:12:31;27.70;99.90
4727;DHT22;2377;51.734;8.950;2022-07-24T09:15:00;27.80;99.90
4727;DHT22;2377;51.734;8.950;2022-07-24T09:17:28;27.80;99.90
4727;DHT22;2377;51.734;8.950;2022-07-24T09:19:56;27.80;99.90
4727;DHT22;2377;51.734;8.950;2022-07-24T09:22:34;27.80;99.90
4727;DHT22;2377;51.734;8.950;2022-07-24T09:25:10;28.00;99.90
4727;DHT22;2377;51.734;8.950;2022-07-24T09:27:41;28.10;99.90
4727;DHT22;2377;51.734;8.950;2022-07-24T09:30:25;28.10;99.90
4727;DHT22;2377;51.734;8.950;2022-07-24T09:32:55;28.10;99.90
4727;DHT22;2377;51.734;8.950;2022-07-24T09:35:32;28.20;99.90
4727;DHT22;2377;51.734;8.950;2022-07-24T09:38:05;28.30;99.90
4727;DHT22;2377;51.734;8.950;2022-07-24T09:40:36;28.40;99.90
4727;DHT22;2377;51.734;8.950;2022-07-24T09:43:16;28.50;99.90
4727;DHT22;2377;51.734;8.950;2022-07-24T09:45:54;28.50;99.90
4727;DHT22;2377;51.734;8.950;2022-07-24T09:48:28;28.50;99.90
4727;DHT22;2377;51.734;8.950;2022-07-24T09:50:58;28.60;99.90
4727;DHT22;2377;51.734;8.950;2022-07-24T09:53:29;28.60;99.90
4727;DHT22;2377;51.734;8.950;2022-07-24T09:55:59;28.60;99.90
4727;DHT22;2377;51.734;8.950;2022-07-24T09:58:30;28.50;99.90
4727;DHT22;2377;51.734;8.950;2022-07-24T10:01:00;28.50;99.90
4727;DHT22;2377;51.734;8.950;2022-07-24T10:03:29;28.50;99.90
4727;DHT22;2377;51.734;8.950;2022-07-24T10:05:59;28.60;99.90
4727;DHT22;2377;51.734;8.950;2022-07-24T10:08:29;28.80;99.90
4727;DHT22;2377;51.734;8.950;2022-07-24T10:10:58;28.90;99.90
4727;DHT22;2377;51.734;8.950;2022-07-24T10:13:26;29.00;99.90
4727;DHT22;2377;51.734;8.950;2022-07-24T10:18:56;29.20;99.90
4727;DHT22;2377;51.734;8.950;2022-07-24T10:21:25;29.20;99.90
4727;DHT22;2377;51.734;8.950;2022-07-24T10:27:24;29.20;99.90
4727;DHT22;2377;51.734;8.950;2022-07-24T10:29:55;29.30;99.90
4727;DHT22;2377;51.734;8.950;2022-07-24T10:32:23;29.10;99.90
4727;DHT22;2377;51.734;8.950;2022-07-24T10:35:00;29.10;99.90
4727;DHT22;2377;51.734;8.950;2022-07-24T10:37:39;29.30;99.90
4727;DHT22;2377;51.734;8.950;2022-07-24T10:40:20;29.30;99.90
4727;DHT22;2377;51.734;8.950;2022-07-24T10:43:14;29.50;99.90
4727;DHT22;2377;51.734;8.950;2022-07-24T10:45:44;29.30;99.90
4727;DHT22;2377;51.734;8.950;2022-07-24T10:48:32;29.30;99.90
4727;DHT22;2377;51.734;8.950;2022-07-24T10:51:07;29.50;99.90
4727;DHT22;2377;51.734;8.950;2022-07-24T10:53:48;29.50;99.90
4727;DHT22;2377;51.734;8.950;2022-07-24T10:56:21;29.20;99.90
4727;DHT22;2377;51.734;8.950;2022-07-24T10:58:56;29.10;99.90
4727;DHT22;2377;51.734;8.950;2022-07-24T11:01:39;29.20;99.90
4727;DHT22;2377;51.734;8.950;2022-07-24T11:04:27;29.30;99.90
4727;DHT22;2377;51.734;8.950;2022-07-24T11:06:59;29.60;99.90
4727;DHT22;2377;51.734;8.950;2022-07-24T11:09:53;29.70;99.90
4727;DHT22;2377;51.734;8.950;2022-07-24T11:12:28;29.80;99.90
4727;DHT22;2377;51.734;8.950;2022-07-24T11:14:58;29.70;99.90
4727;DHT22;2377;51.734;8.950;2022-07-24T11:17:47;29.60;99.90
4727;DHT22;2377;51.734;8.950;2022-07-24T11:20:16;29.60;99.90
4727;DHT22;2377;51.734;8.950;2022-07-24T11:22:46;29.80;99.90
4727;DHT22;2377;51.734;8.950;2022-07-24T11:25:17;29.80;99.90
4727;DHT22;2377;51.734;8.950;2022-07-24T11:27:49;29.60;99.90
4727;DHT22;2377;51.734;8.950;2022-07-24T11:30:19;29.60;99.90
4727;DHT22;2377;51.734;8.950;2022-07-24T11:32:47;29.70;99.90
4727;DHT22;2377;51.734;8.950;2022-07-24T11:35:14;29.70;99.90
4727;DHT22;2377;51.734;8.950;2022-07-24T11:37:43;29.70;99.90
4727;DHT22;2377;51.734;8.950;2022-07-24T11:40:15;29.70;99.90
4727;DHT22;2377;51.734;8.950;2022-07-24T11:42:43;29.80;99.90
4727;DHT22;2377;51.734;8.950;2022-07-24T11:45:12;29.80;99.90
4727;DHT22;2377;51.734;8.950;2022-07-24T11:47:39;29.80;99.90
4727;DHT22;2377;51.734;8.950;2022-07-24T11:50:07;29.80;99.90
4727;DHT22;2377;51.734;8.950;2022-07-24T11:52:36;29.70;99.90
4727;DHT22;2377;51.734;8.950;2022-07-24T11:55:07;29.60;99.90
4727;DHT22;2377;51.734;8.950;2022-07-24T11:57:37;29.60;99.90
4727;DHT22;2377;51.734;8.950;2022-07-24T12:00:09;29.60;99.90
4727;DHT22;2377;51.734;8.950;2022-07-24T12:02:43;29.60;99.90
4727;DHT22;2377;51.734;8.950;2022-07-24T12:05:11;29.60;99.90
4727;DHT22;2377;51.734;8.950;2022-07-24T12:07:38;29.80;99.90
4727;DHT22;2377;51.734;8.950;2022-07-24T12:10:06;29.80;99.90
4727;DHT22;2377;51.734;8.950;2022-07-24T12:12:36;29.80;99.90
4727;DHT22;2377;51.734;8.950;2022-07-24T12:15:06;29.90;99.90
4727;DHT22;2377;51.734;8.950;2022-07-24T12:17:53;29.90;99.90
4727;DHT22;2377;51.734;8.950;2022-07-24T12:20:23;30.00;99.90
4727;DHT22;2377;51.734;8.950;2022-07-24T12:22:51;30.10;99.90
4727;DHT22;2377;51.734;8.950;2022-07-24T12:25:19;30.00;99.90
4727;DHT22;2377;51.734;8.950;2022-07-24T12:27:48;30.00;99.90
4727;DHT22;2377;51.734;8.950;2022-07-24T12:30:20;30.00;99.90
4727;DHT22;2377;51.734;8.950;2022-07-24T12:32:55;30.10;99.90
4727;DHT22;2377;51.734;8.950;2022-07-24T12:35:25;30.30;99.90
4727;DHT22;2377;51.734;8.950;2022-07-24T12:37:53;30.30;99.90
4727;DHT22;2377;51.734;8.950;2022-07-24T12:40:23;30.30;99.90
4727;DHT22;2377;51.734;8.950;2022-07-24T12:42:59;30.20;99.90
4727;DHT22;2377;51.734;8.950;2022-07-24T12:45:29;30.20;99.90
4727;DHT22;2377;51.734;8.950;2022-07-24T12:48:15;30.30;99.90
4727;DHT22;2377;51.734;8.950;2022-07-24T12:51:08;30.30;99.90
4727;DHT22;2377;51.734;8.950;2022-07-24T12:53:38;30.40;99.90
4727;DHT22;2377;51.734;8.950;2022-07-24T12:56:10;30.40;99.90
4727;DHT22;2377;51.734;8.950;2022-07-24T12:58:56;30.50;55.30
4727;DHT22;2377;51.734;8.950;2022-07-24T13:01:28;30.50;99.90
4727;DHT22;2377;51.734;8.950;2022-07-24T13:04:12;30.50;99.90
4727;DHT22;2377;51.734;8.950;2022-07-24T13:06:41;30.50;1.80
4727;DHT22;2377;51.734;8.950;2022-07-24T13:09:12;30.50;1.00
4727;DHT22;2377;51.734;8.950;2022-07-24T13:11:41;30.60;1.00
4727;DHT22;2377;51.734;8.950;2022-07-24T13:14:11;30.60;1.00
4727;DHT22;2377;51.734;8.950;2022-07-24T13:16:40;30.60;1.00
4727;DHT22;2377;51.734;8.950;2022-07-24T13:19:09;30.60;1.00
4727;DHT22;2377;51.734;8.950;2022-07-24T13:21:39;30.60;1.00
4727;DHT22;2377;51.734;8.950;2022-07-24T13:24:08;30.50;1.00
4727;DHT22;2377;51.734;8.950;2022-07-24T13:26:37;30.50;99.90
4727;DHT22;2377;51.734;8.950;2022-07-24T13:29:06;30.50;1.00
4727;DHT22;2377;51.734;8.950;2022-07-24T13:31:34;30.60;1.00
4727;DHT22;2377;51.734;8.950;2022-07-24T13:34:02;30.70;1.00
4727;DHT22;2377;51.734;8.950;2022-07-24T13:36:29;30.70;1.00
4727;DHT22;2377;51.734;8.950;2022-07-24T13:38:59;30.70;1.00
4727;DHT22;2377;51.734;8.950;2022-07-24T13:41:27;30.80;99.90
4727;DHT22;2377;51.734;8.950;2022-07-24T13:43:54;30.80;99.90
4727;DHT22;2377;51.734;8.950;2022-07-24T13:46:22;30.80;99.90
4727;DHT22;2377;51.734;8.950;2022-07-24T13:48:49;30.70;99.90
4727;DHT22;2377;51.734;8.950;2022-07-24T13:51:17;30.60;99.90
4727;DHT22;2377;51.734;8.950;2022-07-24T13:53:44;30.60;99.90
4727;DHT22;2377;51.734;8.950;2022-07-24T13:56:13;30.50;99.90
4727;DHT22;2377;51.734;8.950;2022-07-24T13:58:41;30.50;35.40
4727;DHT22;2377;51.734;8.950;2022-07-24T14:01:09;30.60;42.40
4727;DHT22;2377;51.734;8.950;2022-07-24T14:03:38;30.60;56.00
4727;DHT22;2377;51.734;8.950;2022-07-24T14:06:08;30.70;99.90
4727;DHT22;2377;51.734;8.950;2022-07-24T14:08:36;30.60;99.90
4727;DHT22;2377;51.734;8.950;2022-07-24T14:11:05;30.60;1.00
4727;DHT22;2377;51.734;8.950;2022-07-24T14:13:33;30.50;1.00
4727;DHT22;2377;51.734;8.950;2022-07-24T14:16:01;30.50;1.00
4727;DHT22;2377;51.734;8.950;2022-07-24T14:18:28;30.50;1.00
4727;DHT22;2377;51.734;8.950;2022-07-24T14:20:56;30.60;5.20
4727;DHT22;2377;51.734;8.950;2022-07-24T14:23:23;30.60;1.00
4727;DHT22;2377;51.734;8.950;2022-07-24T14:25:50;30.60;99.90
4727;DHT22;2377;51.734;8.950;2022-07-24T14:28:17;30.60;1.00
4727;DHT22;2377;51.734;8.950;2022-07-24T14:30:46;30.60;1.00
4727;DHT22;2377;51.734;8.950;2022-07-24T14:33:13;30.70;1.00
4727;DHT22;2377;51.734;8.950;2022-07-24T14:35:40;30.80;1.00
4727;DHT22;2377;51.734;8.950;2022-07-24T14:38:07;30.80;1.00
4727;DHT22;2377;51.734;8.950;2022-07-24T14:40:35;30.90;1.00
4727;DHT22;2377;51.734;8.950;2022-07-24T14:43:02;30.80;1.00
4727;DHT22;2377;51.734;8.950;2022-07-24T14:45:29;31.00;1.00
4727;DHT22;2377;51.734;8.950;2022-07-24T14:47:57;31.00;1.00
4727;DHT22;2377;51.734;8.950;2022-07-24T14:50:25;30.90;99.90
4727;DHT22;2377;51.734;8.950;2022-07-24T14:52:52;30.90;99.90
4727;DHT22;2377;51.734;8.950;2022-07-24T14:55:19;30.80;99.90
4727;DHT22;2377;51.734;8.950;2022-07-24T14:57:46;30.60;99.90
4727;DHT22;2377;51.734;8.950;2022-07-24T15:00:13;30.50;99.90
4727;DHT22;2377;51.734;8.950;2022-07-24T15:02:41;30.60;99.90
4727;DHT22;2377;51.734;8.950;2022-07-24T15:05:10;30.60;99.90
4727;DHT22;2377;51.734;8.950;2022-07-24T15:07:37;30.60;99.90
4727;DHT22;2377;51.734;8.950;2022-07-24T15:10:05;30.80;99.90
4727;DHT22;2377;51.734;8.950;2022-07-24T15:12:32;30.80;99.90
4727;DHT22;2377;51.734;8.950;2022-07-24T15:14:59;31.00;99.90
4727;DHT22;2377;51.734;8.950;2022-07-24T15:17:26;31.00;99.90
4727;DHT22;2377;51.734;8.950;2022-07-24T15:19:53;31.00;99.90
4727;DHT22;2377;51.734;8.950;2022-07-24T15:22:22;31.00;99.90
4727;DHT22;2377;51.734;8.950;2022-07-24T15:24:49;30.90;99.90
4727;DHT22;2377;51.734;8.950;2022-07-24T15:27:16;30.90;99.90
4727;DHT22;2377;51.734;8.950;2022-07-24T15:29:43;30.80;99.90
4727;DHT22;2377;51.734;8.950;2022-07-24T15:32:10;30.80;99.90
4727;DHT22;2377;51.734;8.950;2022-07-24T15:34:37;30.80;99.90
4727;DHT22;2377;51.734;8.950;2022-07-24T15:37:05;30.70;99.90
4727;DHT22;2377;51.734;8.950;2022-07-24T15:39:34;30.60;99.90
4727;DHT22;2377;51.734;8.950;2022-07-24T15:42:01;30.60;99.90
4727;DHT22;2377;51.734;8.950;2022-07-24T15:44:28;30.60;99.90
4727;DHT22;2377;51.734;8.950;2022-07-24T15:46:55;30.50;15.10
4727;DHT22;2377;51.734;8.950;2022-07-24T15:49:22;30.50;7.60
4727;DHT22;2377;51.734;8.950;2022-07-24T15:51:49;30.60;40.20
4727;DHT22;2377;51.734;8.950;2022-07-24T15:54:16;30.60;1.00
4727;DHT22;2377;51.734;8.950;2022-07-24T15:56:44;30.60;1.00
4727;DHT22;2377;51.734;8.950;2022-07-24T15:59:11;30.60;1.00
4727;DHT22;2377;51.734;8.950;2022-07-24T16:01:39;30.60;1.00
4727;DHT22;2377;51.734;8.950;2022-07-24T16:04:06;30.60;1.00
4727;DHT22;2377;51.734;8.950;2022-07-24T16:06:33;30.60;1.00
4727;DHT22;2377;51.734;8.950;2022-07-24T16:09:00;30.60;1.00
4727;DHT22;2377;51.734;8.950;2022-07-24T16:11:27;30.60;1.00
4727;DHT22;2377;51.734;8.950;2022-07-24T16:13:55;30.60;1.00
4727;DHT22;2377;51.734;8.950;2022-07-24T16:16:22;30.60;1.00
4727;DHT22;2377;51.734;8.950;2022-07-24T16:18:50;30.70;21.70
4727;DHT22;2377;51.734;8.950;2022-07-24T16:21:17;30.80;1.00
4727;DHT22;2377;51.734;8.950;2022-07-24T16:23:44;30.80;1.00